LATILDSB

Guest
Details From LATI - Tirana Rinas
To LDSB - BRAC
Flight Number -
Tags generated
Created
Modified
Stats Distance 176 nm / 326 km
Max Altitude 16,900 ft / 5,151 m
Waypoints 3
Social Downloads 0
Likes 0
Share VATSIM

Download

Looking for another format? Having issues loading an existing format? Contact us
Advertisement - Login to hide

Notes

Basic altitude profile: - Ascent Rate: 2500ft/min - Ascent Speed: 250kts - Cruise Altitude: 35000ft - Cruise Speed: 420kts - Descent Rate: 1500ft/min - Descent Speed: 250kts Options: - Use NATs: yes - Use PACOTS: yes - Use low airways: yes - Use high airways: yes

Route

LATI ELKOR LDSB

ID Type Via Altitude Latitude Longitude Leg Dist Tot Dist Heading (true) Name
O LATI APT - 0 ft / 0 m 41.41473˚ 19.72057˚ - 0 nm - Tirana Rinas
ELKOR FIX - 16,900 ft / 5,151 m 42.38200˚ 17.99133˚ 96 nm 96 nm 307° / 306° -
O LDSB APT - 0 ft / 0 m 43.28572˚ 16.67972˚ 79 nm 175 nm 314° / 313° BRAC

Altitude Profile

Advertisement - Login to hide

Weather


0- 5 10 15 20 25 30 35+ Temperature / ° C

Clouds and Precipitation
Forecast for 2017-12-16 12:00 UTC. Updated 2 hours ago

Ground ~20,000 ft ~40,000 ft Winds

LATI

Details ICAO LATI (TIA)
Name Tirana Rinas
Region Albania
Timezone Europe/Tirane (UTC+1.0)
Stats Elevation 126 ft / 38 m (AMSL)
Location 41.414732° 19.720569°
Runways 1
Magnetic Variation 4.233° E

METAR

LATI 161220Z 36010KT 9999 FEW030CB BKN046 OVC078 13/09 Q1006 NOSIG

Decode

TAF

TAF LATI 161100Z 1612/1712 20015G30KT 4000 TSRA SCT020CB BKN040 OVC060 TX17/1612Z TN08/1706Z BECMG 1615/1617 15007KT 9999 -RA TEMPO 1621/1712 RA

Decode

Departure Runways

ID Width Length Bearing (true) Bearing (mag) Surface Threshold Offset Overrun Length
18 148 ft / 45 m 8,984 ft / 2,738 m 174.31° 170.08° Asphalt 500 ft / 152 m 0 ft / 0 m
36 148 ft / 45 m 8,984 ft / 2,738 m 354.31° 350.08° Asphalt 500 ft / 152 m 0 ft / 0 m

LDSB

Details ICAO LDSB (BWK)
Name BRAC
Region Croatia
Timezone Europe/Zagreb (UTC+1.0)
Stats Elevation 1,776 ft / 541 m (AMSL)
Location 43.285721° 16.679720°
Runways 1
Magnetic Variation 3.886° E

METAR

LDSB 161200Z 30004KT CAVOK 09/00 Q1006

Decode

TAF

Not found

Destination Runways

ID Width Length Bearing (true) Bearing (mag) Surface Threshold Offset Overrun Length
04 98 ft / 30 m 4,330 ft / 1,320 m 34.99° 31.10° Asphalt 0 ft / 0 m 0 ft / 0 m
22 98 ft / 30 m 4,330 ft / 1,320 m 215.00° 211.11° Asphalt 0 ft / 0 m 0 ft / 0 m

Popular Alternatives